Lunenburg, Canada
Current Conditions -  °F | °C
As of 12:00 AM on Monday 20 Oct 2014 (Local Time) from CYZX Reporting Station
Rain Showers Rain Showers  
Wind Chill: 40°   Ceiling: 2700
Heat Index: 45°   Visibility: 8mi
Dew Point: 41°   Wind: 8mph
Humidity: 87%   Direction: 330°NNW
Pressure: 29.64"   Gusts: NA
Location:  44.38°N, 64.32°W
Report Text: CYZX 200300Z 33007KT 8SM -SHRA OVC027 07/05 A2964 RMK SC8 WNDY HILL 36018G25KT SLP038
Loading
Personal Weather Stations






























Interactive Weather Map
Tropical Storm Tracking
New forecast layout! Learn more

10-Day Weather Forecast

Advertisements
Track Severe Weather on mobile